Nashville, Tennessee
Traffic Map
Current Weather Conditions
Nashville, Tennessee
Clear
Clear
23°
Feels Like: 23°
Wind Chill: 23° Ceiling: Unl
Heat Index: 23° Visibility: 10mi
Dew Point: 21° Wind: 0mph
Humidity: 85% Direction: ° ()
Pressure: 29.97in Gusts: 0mph
Raw Report DataKBNA 040853Z 00000KT 10SM CLR 23/21 A2997 RMK AO2 SLP139 T02330206 53003
Traffic Incident Summary
Active as of:
Severity:
Category:
InformationThere was an issue retrieving the traffic information for this location. Please try a different location or try again shortly.
Advertisements
Track Severe Weather on mobile